Time;durP1;ratioP1;P1;durP2;ratioP2;P2;SDS_P1;SDS_P2;PMS_P1;PMS_P2;Temp;Humidity;BMP_temperature;BMP_pressure;BME280_temperature;BME280_humidity;BME280_pressure;Samples;Min_cycle;Max_cycle;Signal;HPM_P1;HPM_P2
2023/07/30 00:00:38;;;;;;;6.95;3.20;;;;;;;14.64;99.42;100789.13;4970049;28;20066;-70
2023/07/30 00:03:03;;;;;;;9.60;3.67;;;;;;;14.61;99.60;100783.09;4981764;28;20032;-69
2023/07/30 00:05:29;;;;;;;7.07;4.05;;;;;;;14.62;99.19;100787.50;4978479;28;20057;-68
2023/07/30 00:07:54;;;;;;;7.97;3.97;;;;;;;14.59;100.00;100788.59;4981284;28;20782;-70
2023/07/30 00:10:20;;;;;;;5.88;3.53;;;;;;;14.55;100.00;100787.06;4978829;28;20480;-70
2023/07/30 00:12:45;;;;;;;5.28;3.13;;;;;;;14.49;99.52;100787.47;4976081;28;20114;-70
2023/07/30 00:15:11;;;;;;;6.70;3.38;;;;;;;14.46;100.00;100787.66;4973198;28;20049;-70
2023/07/30 00:17:36;;;;;;;7.47;3.50;;;;;;;14.42;100.00;100783.47;4975287;28;20101;-69
2023/07/30 00:20:02;;;;;;;6.55;3.47;;;;;;;14.39;100.00;100787.22;4978023;28;20038;-69
2023/07/30 00:22:28;;;;;;;7.40;3.40;;;;;;;14.35;100.00;100780.34;4976683;28;20121;-70
2023/07/30 00:24:53;;;;;;;6.43;3.38;;;;;;;14.35;100.00;100779.50;4978827;28;20522;-69
2023/07/30 00:27:18;;;;;;;5.20;3.15;;;;;;;14.35;100.00;100777.69;4981494;28;20089;-69
2023/07/30 00:29:44;;;;;;;16.13;4.35;;;;;;;14.32;100.00;100779.69;4975886;28;20027;-70
2023/07/30 00:32:09;;;;;;;7.32;3.50;;;;;;;14.28;100.00;100786.22;4977886;28;20057;-69
2023/07/30 00:34:35;;;;;;;6.80;3.30;;;;;;;14.20;100.00;100786.72;4978285;28;20600;-71
2023/07/30 00:37:00;;;;;;;7.47;3.67;;;;;;;14.23;100.00;100789.22;4979598;28;20063;-69
2023/07/30 00:39:25;;;;;;;4.68;3.40;;;;;;;14.21;100.00;100783.09;4979883;28;20495;-69
2023/07/30 00:41:51;;;;;;;5.75;3.20;;;;;;;14.18;100.00;100786.84;4980764;28;20052;-70
2023/07/30 00:44:16;;;;;;;6.32;3.90;;;;;;;14.12;100.00;100791.75;4976398;28;20124;-69
2023/07/30 00:46:41;;;;;;;7.85;4.55;;;;;;;14.09;100.00;100790.13;4981726;28;20034;-70
2023/07/30 00:49:07;;;;;;;6.43;3.50;;;;;;;14.13;100.00;100785.44;4976053;28;20026;-68
2023/07/30 00:51:36;;;;;;;6.75;3.45;;;;;;;14.09;100.00;100797.31;4977641;28;20279;-69
2023/07/30 00:54:02;;;;;;;8.75;3.75;;;;;;;14.09;100.00;100800.00;4979405;28;20046;-68
2023/07/30 00:56:28;;;;;;;7.20;3.63;;;;;;;14.05;100.00;100801.16;4977579;28;20037;-68
2023/07/30 00:58:54;;;;;;;8.02;3.38;;;;;;;14.05;100.00;100799.34;4972710;28;20026;-67
2023/07/30 01:01:19;;;;;;;7.45;3.30;;;;;;;14.07;100.00;100799.22;4978178;28;20050;-68
2023/07/30 01:03:45;;;;;;;5.43;3.20;;;;;;;14.03;100.00;100798.56;4976973;28;20318;-68
2023/07/30 01:06:10;;;;;;;8.25;3.70;;;;;;;13.98;100.00;100791.81;4979197;28;20046;-68
2023/07/30 01:08:36;;;;;;;9.90;3.83;;;;;;;14.00;100.00;100801.44;4980092;28;20026;-68
2023/07/30 01:11:03;;;;;;;6.40;3.25;;;;;;;14.02;100.00;100804.03;4979642;28;20030;-68
2023/07/30 01:13:31;;;;;;;9.40;3.38;;;;;;;13.98;100.00;100807.84;4978927;28;20019;-69
2023/07/30 01:15:56;;;;;;;7.68;3.92;;;;;;;14.02;100.00;100807.56;4980283;28;20030;-69
2023/07/30 01:18:22;;;;;;;6.25;3.67;;;;;;;13.98;100.00;100805.19;4981511;28;20523;-69
2023/07/30 01:20:47;;;;;;;7.80;3.67;;;;;;;13.97;100.00;100814.19;4975372;28;20015;-68
2023/07/30 01:23:12;;;;;;;6.97;3.42;;;;;;;13.97;100.00;100822.19;4977352;28;20290;-69
2023/07/30 01:25:39;;;;;;;8.93;3.58;;;;;;;13.99;100.00;100817.59;4981860;28;20382;-69
2023/07/30 01:28:12;;;;;;;8.75;3.88;;;;;;;13.97;100.00;100817.72;4978335;28;20041;-69
2023/07/30 01:30:41;;;;;;;9.52;3.92;;;;;;;13.91;100.00;100821.63;4979713;28;20084;-69
2023/07/30 01:33:07;;;;;;;8.63;3.70;;;;;;;13.89;100.00;100814.66;4980445;28;20466;-68
2023/07/30 01:35:33;;;;;;;9.73;4.20;;;;;;;13.88;100.00;100827.19;4978693;28;20030;-69
2023/07/30 01:38:02;;;;;;;9.65;3.83;;;;;;;13.83;100.00;100828.44;4982050;28;20026;-69
2023/07/30 01:40:27;;;;;;;6.85;3.92;;;;;;;13.82;100.00;100824.91;4982721;28;20045;-69
2023/07/30 01:42:53;;;;;;;8.57;3.55;;;;;;;13.84;100.00;100833.69;4978497;28;20393;-68
2023/07/30 01:45:18;;;;;;;7.47;3.40;;;;;;;13.84;100.00;100831.03;4983385;28;20505;-69
2023/07/30 01:47:44;;;;;;;9.30;4.35;;;;;;;13.86;100.00;100826.41;4977324;28;20045;-69
2023/07/30 01:50:09;;;;;;;11.30;4.20;;;;;;;13.87;100.00;100832.63;4984270;28;20026;-67
2023/07/30 01:52:35;;;;;;;10.13;3.92;;;;;;;13.83;100.00;100834.63;4979710;28;20464;-71
2023/07/30 01:55:01;;;;;;;10.60;3.97;;;;;;;13.86;100.00;100830.91;4975637;28;20326;-68
2023/07/30 01:57:26;;;;;;;9.95;4.35;;;;;;;13.86;100.00;100829.09;4981389;28;20030;-69
2023/07/30 01:59:52;;;;;;;10.20;4.72;;;;;;;13.85;100.00;100829.22;4980307;28;20493;-68
2023/07/30 02:02:17;;;;;;;7.75;3.53;;;;;;;13.80;100.00;100828.66;4981471;28;20030;-68
2023/07/30 02:04:42;;;;;;;7.63;3.50;;;;;;;13.79;100.00;100835.78;4980546;28;20030;-69
2023/07/30 02:07:08;;;;;;;6.28;3.78;;;;;;;13.79;100.00;100837.59;4984027;28;20050;-69
2023/07/30 02:09:33;;;;;;;8.32;3.72;;;;;;;13.79;100.00;100834.94;4982813;28;20030;-69
2023/07/30 02:11:59;;;;;;;7.45;3.90;;;;;;;13.76;100.00;100838.69;4977015;28;20022;-68
2023/07/30 02:14:25;;;;;;;10.20;4.15;;;;;;;13.75;100.00;100833.41;4981904;28;20038;-69
2023/07/30 02:16:50;;;;;;;9.70;4.03;;;;;;;13.75;100.00;100836.94;4980430;28;20038;-67
2023/07/30 02:19:15;;;;;;;9.32;4.05;;;;;;;13.73;100.00;100833.53;4981937;28;20062;-68
2023/07/30 02:21:42;;;;;;;10.38;3.80;;;;;;;13.69;100.00;100829.31;4979973;28;20066;-69
2023/07/30 02:24:10;;;;;;;9.57;3.63;;;;;;;13.69;100.00;100823.97;4981727;28;20031;-68
2023/07/30 02:26:36;;;;;;;10.23;4.30;;;;;;;13.61;100.00;100816.44;4981184;28;20038;-68
2023/07/30 02:29:02;;;;;;;10.55;4.30;;;;;;;13.68;100.00;100809.75;4998432;28;20030;-69
2023/07/30 02:31:27;;;;;;;8.18;3.63;;;;;;;13.68;100.00;100822.28;4981753;28;20026;-69
2023/07/30 02:33:53;;;;;;;9.57;4.30;;;;;;;13.71;100.00;100822.09;4981312;28;20502;-70
2023/07/30 02:36:18;;;;;;;13.50;4.75;;;;;;;13.75;100.00;100815.53;4975538;28;20061;-68
2023/07/30 02:38:43;;;;;;;9.00;3.78;;;;;;;13.87;100.00;100814.75;4980213;28;20064;-69
2023/07/30 02:41:09;;;;;;;10.00;4.32;;;;;;;13.94;100.00;100816.06;4982754;28;20034;-68
2023/07/30 02:43:37;;;;;;;11.93;4.20;;;;;;;14.02;100.00;100814.72;4980134;28;20037;-70
2023/07/30 02:46:02;;;;;;;8.68;4.47;;;;;;;14.06;100.00;100817.09;4981132;28;20065;-68
2023/07/30 02:48:28;;;;;;;11.68;4.32;;;;;;;14.08;100.00;100817.00;4982425;28;20046;-68
2023/07/30 02:50:53;;;;;;;10.55;4.25;;;;;;;14.09;100.00;100816.06;4977244;28;20478;-69
2023/07/30 02:53:18;;;;;;;13.25;4.28;;;;;;;14.14;100.00;100819.28;4981749;28;20027;-69
2023/07/30 02:55:44;;;;;;;9.18;3.90;;;;;;;14.18;100.00;100820.78;4979029;28;20045;-69
2023/07/30 02:58:09;;;;;;;10.15;4.10;;;;;;;14.19;100.00;100818.00;4981897;28;20026;-69
2023/07/30 03:00:35;;;;;;;8.23;3.53;;;;;;;14.17;100.00;100827.97;4979678;28;20030;-69
2023/07/30 03:03:01;;;;;;;7.65;3.95;;;;;;;14.21;100.00;100825.91;4977652;28;20053;-68
2023/07/30 03:05:27;;;;;;;9.95;4.38;;;;;;;14.23;100.00;100829.38;4978165;28;20497;-68
2023/07/30 03:07:52;;;;;;;9.75;3.95;;;;;;;14.23;100.00;100829.38;4972846;28;20109;-68
2023/07/30 03:10:18;;;;;;;8.57;3.90;;;;;;;14.26;100.00;100837.22;4967341;28;20026;-67
2023/07/30 03:12:43;;;;;;;8.82;3.83;;;;;;;14.23;100.00;100829.38;4972759;28;20662;-69
2023/07/30 03:15:09;;;;;;;9.93;3.88;;;;;;;14.26;100.00;100833.66;4968887;28;20022;-68
2023/07/30 03:17:35;;;;;;;7.22;3.78;;;;;;;14.29;100.00;100836.13;4973748;28;20622;-68
2023/07/30 03:20:01;;;;;;;9.02;3.65;;;;;;;14.29;100.00;100828.09;4991684;28;20413;-68
2023/07/30 03:22:27;;;;;;;10.20;4.15;;;;;;;14.30;100.00;100832.50;4968643;28;20027;-68
2023/07/30 03:24:52;;;;;;;11.55;3.83;;;;;;;14.28;100.00;100843.28;4969021;28;20118;-67
2023/07/30 03:27:17;;;;;;;8.20;4.32;;;;;;;14.27;100.00;100828.19;4970004;28;20072;-69
2023/07/30 03:29:43;;;;;;;7.63;3.67;;;;;;;14.31;100.00;100832.41;4968558;28;20109;-68
2023/07/30 03:32:08;;;;;;;11.80;3.95;;;;;;;14.27;100.00;100836.22;4970377;28;20121;-69
2023/07/30 03:34:34;;;;;;;10.77;4.38;;;;;;;14.28;100.00;100829.91;4970150;28;20575;-69
2023/07/30 03:37:00;;;;;;;11.05;4.03;;;;;;;14.29;100.00;100828.09;4974637;28;20485;-68
2023/07/30 03:39:25;;;;;;;13.38;4.80;;;;;;;14.28;100.00;100834.41;4979776;28;20104;-68
2023/07/30 03:41:51;;;;;;;11.10;4.25;;;;;;;14.28;100.00;100835.25;4978950;28;20037;-69
2023/07/30 03:44:16;;;;;;;11.20;3.80;;;;;;;14.31;100.00;100837.75;4978560;28;20046;-68
2023/07/30 03:46:43;;;;;;;12.93;4.03;;;;;;;14.33;100.00;100843.84;4977865;28;20538;-67
2023/07/30 03:49:08;;;;;;;9.02;4.22;;;;;;;14.29;100.00;100839.66;4977191;28;20038;-69
2023/07/30 03:51:34;;;;;;;11.50;4.35;;;;;;;14.26;100.00;100833.66;4980136;28;20034;-70
2023/07/30 03:53:59;;;;;;;9.98;4.25;;;;;;;14.31;100.00;100844.94;4979013;28;20019;-71
2023/07/30 03:56:25;;;;;;;11.20;4.03;;;;;;;14.31;100.00;100847.59;4982390;28;20382;-68
2023/07/30 03:58:50;;;;;;;10.23;3.90;;;;;;;14.31;100.00;100853.81;4978542;28;20037;-70
2023/07/30 04:01:15;;;;;;;11.80;4.07;;;;;;;14.29;100.00;100853.03;4979349;28;20060;-69
2023/07/30 04:03:41;;;;;;;11.32;3.88;;;;;;;14.30;100.00;100861.97;4978697;28;20026;-69
2023/07/30 04:06:06;;;;;;;11.05;4.28;;;;;;;14.30;100.00;100862.81;4978291;28;20077;-69
2023/07/30 04:08:32;;;;;;;12.40;4.55;;;;;;;14.28;100.00;100859.38;4977963;28;20030;-69
2023/07/30 04:10:57;;;;;;;12.98;4.30;;;;;;;14.31;100.00;100867.19;4975756;28;20390;-70
2023/07/30 04:13:23;;;;;;;10.00;4.97;;;;;;;14.33;100.00;100851.88;4979161;28;20584;-68
2023/07/30 04:15:48;;;;;;;13.15;4.50;;;;;;;14.34;100.00;100850.09;4976199;28;20453;-67
2023/07/30 04:18:13;;;;;;;14.07;4.88;;;;;;;14.34;100.00;100853.63;4977111;28;20531;-68
2023/07/30 04:20:39;;;;;;;12.52;4.93;;;;;;;14.36;100.00;100861.53;4977224;28;20040;-70
2023/07/30 04:23:07;;;;;;;14.55;5.10;;;;;;;14.38;100.00;100849.78;4979167;28;20038;-69
2023/07/30 04:25:33;;;;;;;11.55;5.50;;;;;;;14.40;100.00;100855.88;4980629;28;20477;-68
2023/07/30 04:27:58;;;;;;;17.42;5.43;;;;;;;14.43;100.00;100857.50;4980538;28;20125;-69
2023/07/30 04:30:24;;;;;;;14.63;5.65;;;;;;;14.42;100.00;100851.28;4975635;28;20195;-68
2023/07/30 04:32:49;;;;;;;13.95;6.03;;;;;;;14.43;100.00;100852.16;4978640;28;20042;-69
2023/07/30 04:35:15;;;;;;;18.02;5.70;;;;;;;14.49;100.00;100861.63;4977803;28;20044;-69
2023/07/30 04:37:40;;;;;;;14.68;6.03;;;;;;;14.53;100.00;100852.41;4980136;28;20026;-70
2023/07/30 04:40:06;;;;;;;16.90;6.50;;;;;;;14.55;100.00;100845.16;4979249;28;20523;-69
2023/07/30 04:42:32;;;;;;;13.50;5.97;;;;;;;14.59;100.00;100849.31;4981248;28;20030;-67
2023/07/30 04:44:57;;;;;;;14.18;6.20;;;;;;;14.64;100.00;100853.41;4979809;28;20088;-68
2023/07/30 04:47:22;;;;;;;15.52;6.03;;;;;;;14.68;100.00;100854.91;4977440;28;20026;-68
2023/07/30 04:49:48;;;;;;;15.55;6.30;;;;;;;14.73;100.00;100854.59;4978801;28;20030;-68
2023/07/30 04:52:13;;;;;;;12.13;5.72;;;;;;;14.75;100.00;100855.34;4975013;28;20334;-67
2023/07/30 04:54:38;;;;;;;16.15;5.88;;;;;;;14.75;100.00;100855.34;4979860;28;20507;-68
2023/07/30 04:57:07;;;;;;;14.55;5.53;;;;;;;14.80;100.00;100850.56;4978729;28;20255;-67
2023/07/30 04:59:33;;;;;;;14.68;5.57;;;;;;;14.84;100.00;100854.75;4979423;28;20027;-67
2023/07/30 05:01:59;;;;;;;15.70;5.82;;;;;;;14.89;100.00;100854.41;4972879;28;20124;-68
2023/07/30 05:04:25;;;;;;;15.52;5.75;;;;;;;14.91;100.00;100860.50;4978561;28;20792;-68
2023/07/30 05:06:50;;;;;;;13.55;5.57;;;;;;;14.89;100.00;100859.78;4974834;28;20386;-67
2023/07/30 05:09:15;;;;;;;12.68;5.50;;;;;;;14.93;100.00;100862.13;4977556;28;20513;-69
2023/07/30 05:11:41;;;;;;;15.48;5.82;;;;;;;14.98;100.00;100867.19;4978465;28;20037;-67
2023/07/30 05:14:06;;;;;;;11.25;5.15;;;;;;;14.97;100.00;100868.16;4977513;28;20485;-68
2023/07/30 05:16:32;;;;;;;13.15;5.07;;;;;;;15.02;100.00;100875.88;4977373;28;20369;-68
2023/07/30 05:18:57;;;;;;;13.77;5.32;;;;;;;15.02;100.00;100884.78;4977380;28;20037;-68
2023/07/30 05:21:23;;;;;;;11.48;4.95;;;;;;;15.02;100.00;100882.09;4971203;28;20493;-68
2023/07/30 05:23:48;;;;;;;13.30;4.97;;;;;;;15.08;100.00;100889.69;4975243;28;20460;-67
2023/07/30 05:26:13;;;;;;;15.90;5.53;;;;;;;15.08;100.00;100891.53;4974101;28;20064;-68
2023/07/30 05:28:39;;;;;;;14.30;5.47;;;;;;;15.06;100.00;100888.97;4976351;28;20532;-67
2023/07/30 05:31:07;;;;;;;15.98;6.03;;;;;;;15.09;100.00;100893.22;4975320;28;20038;-68
2023/07/30 05:33:32;;;;;;;16.48;5.85;;;;;;;15.08;100.00;100892.38;4979907;28;20152;-69
2023/07/30 05:35:58;;;;;;;17.67;5.70;;;;;;;15.10;100.00;100895.81;4977689;28;20034;-68
2023/07/30 05:38:23;;;;;;;15.82;5.60;;;;;;;15.14;100.00;100880.38;4980274;28;20761;-69
2023/07/30 05:40:48;;;;;;;10.88;4.97;;;;;;;15.14;100.00;100881.25;4978788;28;21450;-69
2023/07/30 05:43:14;;;;;;;16.02;5.63;;;;;;;15.17;100.00;100885.50;4977510;28;20479;-68
2023/07/30 05:45:39;;;;;;;17.13;5.72;;;;;;;15.23;100.00;100884.25;4976606;28;20504;-67
2023/07/30 05:48:05;;;;;;;14.50;5.32;;;;;;;15.26;100.00;100887.59;4980291;28;20101;-69
2023/07/30 05:50:30;;;;;;;15.07;6.05;;;;;;;15.29;100.00;100883.81;4979724;28;20439;-68
2023/07/30 05:52:55;;;;;;;15.10;5.68;;;;;;;15.31;100.00;100879.22;4978715;28;20686;-68
2023/07/30 05:55:21;;;;;;;13.68;5.15;;;;;;;15.37;100.00;100879.63;4977833;28;20166;-69
2023/07/30 05:57:46;;;;;;;18.67;5.75;;;;;;;15.48;100.00;100884.25;4979521;28;20515;-67
2023/07/30 06:00:12;;;;;;;18.65;5.50;;;;;;;15.57;100.00;100882.72;4973501;28;20030;-67
2023/07/30 06:02:37;;;;;;;13.32;4.95;;;;;;;15.61;100.00;100886.91;4975273;28;20041;-67
2023/07/30 06:05:03;;;;;;;19.95;6.13;;;;;;;15.63;100.00;100888.53;4980050;28;20053;-68
2023/07/30 06:07:28;;;;;;;17.80;6.03;;;;;;;15.69;100.00;100884.56;4975707;28;20413;-66
2023/07/30 06:09:54;;;;;;;16.88;5.85;;;;;;;15.68;100.00;100893.59;4977308;28;20445;-67
2023/07/30 06:12:19;;;;;;;20.10;6.35;;;;;;;15.75;100.00;100894.84;4979515;28;20092;-67
2023/07/30 06:14:44;;;;;;;12.85;5.70;;;;;;;15.79;100.00;100887.44;4976041;28;20027;-68
2023/07/30 06:17:10;;;;;;;16.58;6.47;;;;;;;15.79;100.00;100888.31;4981491;28;20050;-69
2023/07/30 06:19:35;;;;;;;16.48;6.05;;;;;;;15.85;100.00;100895.06;4983328;28;20103;-69
2023/07/30 06:22:01;;;;;;;18.98;5.97;;;;;;;15.86;100.00;100894.09;4980427;28;20033;-68
2023/07/30 06:24:26;;;;;;;13.85;6.35;;;;;;;15.90;100.00;100900.97;4982500;28;20369;-70
2023/07/30 06:26:51;;;;;;;20.85;6.63;;;;;;;15.93;100.00;100896.22;4981105;28;20084;-69
2023/07/30 06:29:17;;;;;;;17.92;6.43;;;;;;;15.98;100.00;100900.41;4981067;28;20551;-68
2023/07/30 06:31:42;;;;;;;16.95;6.30;;;;;;;16.03;100.00;100899.09;4980012;28;20441;-69
2023/07/30 06:34:08;;;;;;;17.35;5.72;;;;;;;16.07;100.00;100897.06;4983258;28;20026;-68
2023/07/30 06:36:33;;;;;;;19.13;5.95;;;;;;;16.13;100.00;100901.97;4978491;28;20397;-68
2023/07/30 06:38:58;;;;;;;22.25;6.35;;;;;;;16.15;100.00;100898.19;4974639;28;20026;-69
2023/07/30 06:41:24;;;;;;;15.90;5.32;;;;;;;16.19;100.00;100909.56;4979913;28;20457;-68
2023/07/30 06:43:50;;;;;;;16.88;5.65;;;;;;;16.16;100.00;100901.75;4977163;28;20045;-67
2023/07/30 06:46:15;;;;;;;16.23;5.32;;;;;;;16.23;100.00;100905.69;4977241;28;20419;-68
2023/07/30 06:48:40;;;;;;;17.52;5.75;;;;;;;16.29;100.00;100902.53;4978164;28;20133;-68
2023/07/30 06:51:07;;;;;;;15.90;5.82;;;;;;;16.36;100.00;100892.22;4979922;28;20034;-68
2023/07/30 06:53:32;;;;;;;18.40;5.97;;;;;;;16.43;100.00;100896.19;4979828;28;20337;-69
2023/07/30 06:55:57;;;;;;;14.65;4.55;;;;;;;16.52;100.00;100898.16;4982286;28;20029;-69
2023/07/30 06:58:23;;;;;;;16.65;5.00;;;;;;;16.72;100.00;100899.38;4976816;28;20058;-68
2023/07/30 07:00:48;;;;;;;15.20;5.10;;;;;;;16.83;99.94;100896.72;4980105;28;20121;-68
2023/07/30 07:03:13;;;;;;;14.60;5.00;;;;;;;16.91;99.93;100899.69;4978736;28;20487;-69
2023/07/30 07:05:39;;;;;;;15.73;4.70;;;;;;;17.05;98.99;100901.31;4977157;28;20046;-68
2023/07/30 07:08:05;;;;;;;16.90;4.97;;;;;;;17.17;98.08;100896.81;4981615;28;20403;-69
2023/07/30 07:10:31;;;;;;;14.18;4.47;;;;;;;17.22;97.18;100905.38;4983121;28;20038;-67
2023/07/30 07:12:56;;;;;;;14.82;4.35;;;;;;;17.21;97.93;100914.44;4980919;28;20029;-68
2023/07/30 07:15:21;;;;;;;15.68;4.13;;;;;;;17.14;97.19;100915.91;4981001;28;20026;-68
2023/07/30 07:17:47;;;;;;;11.80;4.20;;;;;;;16.98;98.34;100915.38;4978857;28;20022;-67
2023/07/30 07:20:12;;;;;;;11.95;4.38;;;;;;;16.83;98.11;100918.22;4979608;28;20042;-68
2023/07/30 07:22:38;;;;;;;12.95;4.13;;;;;;;16.68;99.42;100925.59;4981579;28;20034;-68
2023/07/30 07:25:03;;;;;;;15.18;4.80;;;;;;;16.67;100.00;100918.50;4980742;28;20120;-68
2023/07/30 07:27:29;;;;;;;14.95;4.97;;;;;;;16.96;99.91;100918.16;4980614;28;20033;-68
2023/07/30 07:29:54;;;;;;;16.25;3.90;;;;;;;17.47;98.59;100916.91;4978758;28;20030;-68
2023/07/30 07:32:19;;;;;;;14.50;4.80;;;;;;;18.07;94.41;100911.22;4979229;28;20527;-66
2023/07/30 07:34:49;;;;;;;15.48;4.75;;;;;;;18.40;91.02;100904.03;4980275;28;20037;-68
2023/07/30 07:37:16;;;;;;;15.70;4.10;;;;;;;18.65;90.00;100911.78;4980068;28;20113;-68
2023/07/30 07:39:42;;;;;;;18.52;3.83;;;;;;;18.88;87.90;100917.97;4979576;28;20061;-67
2023/07/30 07:42:08;;;;;;;13.52;3.30;;;;;;;18.90;86.57;100920.56;4981236;28;20038;-67
2023/07/30 07:44:33;;;;;;;11.70;4.00;;;;;;;18.73;87.74;100915.69;4982972;28;20030;-67
2023/07/30 07:46:58;;;;;;;14.23;4.47;;;;;;;18.65;86.45;100922.56;4978931;28;20053;-68
2023/07/30 07:49:24;;;;;;;15.88;3.83;;;;;;;18.88;86.61;100917.09;4980206;28;20033;-68
2023/07/30 07:51:49;;;;;;;17.08;4.30;;;;;;;19.36;84.75;100919.31;4977597;28;20035;-68
2023/07/30 07:54:14;;;;;;;13.23;3.33;;;;;;;19.45;83.70;100928.44;4980734;28;20030;-67
2023/07/30 07:56:40;;;;;;;15.02;3.60;;;;;;;19.06;82.55;100930.88;4980328;28;20049;-68
2023/07/30 07:59:05;;;;;;;14.27;3.97;;;;;;;18.76;85.94;100931.63;4976628;28;20062;-68
2023/07/30 08:01:30;;;;;;;16.30;4.22;;;;;;;18.56;87.26;100928.75;4979747;28;20030;-68
2023/07/30 08:03:56;;;;;;;16.38;4.10;;;;;;;18.73;87.40;100931.88;4978104;28;20027;-68
2023/07/30 08:06:21;;;;;;;14.18;3.78;;;;;;;18.79;84.78;100913.34;4977662;28;20051;-67
2023/07/30 08:08:46;;;;;;;17.83;3.95;;;;;;;18.95;84.26;100925.56;4976672;28;20030;-67
2023/07/30 08:11:12;;;;;;;12.18;3.55;;;;;;;19.82;82.48;100924.25;4974133;28;20045;-67
2023/07/30 08:13:37;;;;;;;10.77;3.63;;;;;;;20.08;77.49;100915.69;4980119;28;20331;-68
2023/07/30 08:16:03;;;;;;;12.88;4.10;;;;;;;20.80;75.83;100920.78;4975132;28;20156;-67
2023/07/30 08:18:28;;;;;;;13.63;3.58;;;;;;;21.29;72.92;100916.19;4972214;28;20121;-67
2023/07/30 08:20:54;;;;;;;11.80;3.97;;;;;;;21.27;72.13;100930.88;4969436;28;20279;-68
2023/07/30 08:23:19;;;;;;;12.68;3.65;;;;;;;20.72;72.20;100939.59;4966853;28;20084;-68
2023/07/30 08:25:47;;;;;;;11.43;4.13;;;;;;;20.34;75.66;100946.59;4972189;28;20043;-68
2023/07/30 08:28:12;;;;;;;11.43;3.38;;;;;;;20.02;75.04;100948.63;4966750;28;20078;-68
2023/07/30 08:30:37;;;;;;;11.32;3.30;;;;;;;19.65;76.70;100943.81;4977286;28;20030;-67
2023/07/30 08:33:03;;;;;;;10.55;3.08;;;;;;;19.21;78.69;100940.34;4979108;28;20030;-67
2023/07/30 08:35:28;;;;;;;16.70;4.72;;;;;;;19.10;80.57;100946.69;4980447;28;20117;-67
2023/07/30 08:37:54;;;;;;;28.92;4.78;;;;;;;19.30;79.18;100936.88;4974023;28;20166;-66
2023/07/30 08:40:24;;;;;;;27.45;4.68;;;;;;;19.49;78.90;100938.84;4975606;28;20485;-69
2023/07/30 08:42:53;;;;;;;14.00;3.78;;;;;;;19.50;78.45;100942.41;4976829;28;20321;-66
2023/07/30 08:45:19;;;;;;;13.13;3.67;;;;;;;19.77;78.22;100948.13;4990709;28;20041;-67
2023/07/30 08:47:46;;;;;;;15.57;4.50;;;;;;;19.97;76.36;100954.44;4979464;28;20544;-67
2023/07/30 08:50:12;;;;;;;9.82;3.35;;;;;;;20.23;75.90;100948.56;4974844;28;20354;-68
2023/07/30 08:52:38;;;;;;;15.43;5.00;;;;;;;20.39;74.32;100947.03;4979701;28;20129;-67
2023/07/30 08:55:05;;;;;;;12.73;3.67;;;;;;;20.37;74.38;100940.94;4981034;28;20026;-68
2023/07/30 08:57:31;;;;;;;8.77;3.15;;;;;;;20.33;74.11;100941.34;4976040;28;20099;-66
2023/07/30 09:00:04;;;;;;;12.35;3.78;;;;;;;20.68;73.57;100938.16;4980722;28;20026;-69
2023/07/30 09:02:58;;;;;;;12.55;4.28;;;;;;;20.97;72.28;100942.72;4977766;28;20072;-69
2023/07/30 09:05:24;;;;;;;13.25;3.22;;;;;;;21.07;71.16;100935.47;4975308;28;20092;-69
2023/07/30 09:07:49;;;;;;;14.90;3.67;;;;;;;21.08;69.67;100929.06;4974965;28;20507;-68
2023/07/30 09:10:15;;;;;;;16.92;3.58;;;;;;;22.06;69.07;100928.63;4974382;28;20484;-71
2023/07/30 09:12:41;;;;;;;11.73;3.30;;;;;;;22.23;66.06;100935.13;4973723;28;20315;-67
2023/07/30 09:15:07;;;;;;;9.85;3.20;;;;;;;21.90;66.35;100931.13;4972457;28;20445;-65
2023/07/30 09:17:33;;;;;;;36.38;5.82;;;;;;;21.66;68.01;100928.97;4977771;28;20105;-67
2023/07/30 09:20:00;;;;;;;49.42;7.20;;;;;;;21.54;67.42;100933.69;4976548;28;20058;-68
2023/07/30 09:22:33;;;;;;;38.88;5.43;;;;;;;21.38;69.67;100933.44;4976352;28;20038;-67
2023/07/30 09:25:02;;;;;;;13.88;3.17;;;;;;;21.81;67.39;100938.31;4974907;28;20040;-66
2023/07/30 09:27:28;;;;;;;15.32;3.17;;;;;;;21.71;64.36;100942.06;4976077;28;20062;-68
2023/07/30 09:29:56;;;;;;;9.90;2.92;;;;;;;21.68;65.95;100935.06;4977530;28;20026;-67
2023/07/30 09:32:29;;;;;;;14.93;3.45;;;;;;;21.96;65.88;100941.38;4970581;28;20113;-67
2023/07/30 09:34:56;;;;;;;11.73;3.30;;;;;;;22.25;63.18;100944.00;4974522;28;20042;-67
2023/07/30 09:37:21;;;;;;;6.80;2.80;;;;;;;23.61;60.72;100937.44;4980905;28;20106;-66
2023/07/30 09:39:50;;;;;;;8.52;2.63;;;;;;;23.55;58.90;100941.66;4978430;28;20038;-67
2023/07/30 09:42:15;;;;;;;8.70;2.75;;;;;;;23.48;58.40;100937.84;4975072;28;20027;-67
2023/07/30 09:44:40;;;;;;;8.48;2.47;;;;;;;23.59;57.89;100939.47;4978872;28;20026;-67
2023/07/30 09:47:12;;;;;;;9.73;2.85;;;;;;;22.94;60.13;100947.09;4975663;28;20512;-67
2023/07/30 09:49:38;;;;;;;8.77;2.80;;;;;;;22.88;59.94;100948.56;4974204;28;20091;-68
2023/07/30 09:52:07;;;;;;;8.70;2.45;;;;;;;23.63;57.42;100943.56;4978708;28;20026;-68
2023/07/30 09:54:33;;;;;;;9.23;2.63;;;;;;;23.72;55.32;100944.50;4981044;28;20084;-68
2023/07/30 09:56:58;;;;;;;8.63;2.42;;;;;;;22.84;57.92;100948.00;4980528;28;20377;-68
2023/07/30 09:59:24;;;;;;;11.77;3.28;;;;;;;22.67;60.31;100946.16;4984292;28;20864;-68
2023/07/30 10:01:50;;;;;;;11.38;2.72;;;;;;;23.89;55.72;100949.00;4981525;28;20133;-67
2023/07/30 10:04:19;;;;;;;21.55;3.45;;;;;;;24.22;53.32;100947.28;4979812;28;20035;-66
2023/07/30 10:06:56;;;;;;;26.85;5.15;;;;;;;23.20;56.66;100937.16;4985181;28;20563;-67
2023/07/30 10:09:24;;;;;;;15.43;3.22;;;;;;;22.57;60.53;100950.78;4980278;28;20089;-68
2023/07/30 10:11:52;;;;;;;16.02;3.08;;;;;;;22.27;62.21;100958.22;4980307;28;20042;-68
2023/07/30 10:14:20;;;;;;;9.85;2.65;;;;;;;22.02;63.82;100954.31;4984021;28;20077;-66
2023/07/30 10:16:53;;;;;;;7.38;2.30;;;;;;;21.98;61.80;100963.75;4979901;28;20054;-66
2023/07/30 10:19:23;;;;;;;7.82;2.63;;;;;;;22.36;59.09;100956.47;4979299;28;20511;-66
2023/07/30 10:21:48;;;;;;;7.65;2.10;;;;;;;22.93;58.64;100961.69;4978617;28;20612;-67
2023/07/30 10:24:13;;;;;;;8.43;2.15;;;;;;;22.49;57.58;100947.97;4978023;28;20030;-68
2023/07/30 10:26:39;;;;;;;6.60;2.10;;;;;;;22.22;59.60;100952.41;4979038;28;20030;-66
2023/07/30 10:29:16;;;;;;;16.58;3.50;;;;;;;23.07;58.99;100961.13;4979766;28;20396;-69
2023/07/30 10:31:43;;;;;;;5.90;2.20;;;;;;;23.23;56.92;100963.97;4980189;28;20080;-70
2023/07/30 10:34:10;;;;;;;8.75;2.55;;;;;;;23.88;54.87;100969.06;4983548;28;20034;-70
2023/07/30 10:36:43;;;;;;;7.03;2.00;;;;;;;23.48;55.40;100958.75;4985438;28;20030;-69
2023/07/30 10:39:19;;;;;;;5.30;1.70;;;;;;;23.95;54.55;100966.53;4975882;28;20057;-70
2023/07/30 10:41:56;;;;;;;6.30;1.83;;;;;;;24.09;52.49;100964.06;4980453;28;20563;-71
2023/07/30 10:44:33;;;;;;;4.95;1.60;;;;;;;23.32;52.89;100981.19;4978295;28;20037;-69
2023/07/30 10:46:59;;;;;;;4.15;1.65;;;;;;;22.64;54.18;100984.44;4977994;28;20099;-69
2023/07/30 10:49:25;;;;;;;6.07;2.00;;;;;;;22.48;55.28;100985.09;4974218;28;20358;-70
2023/07/30 10:51:52;;;;;;;5.53;1.60;;;;;;;23.76;53.03;100982.06;4979226;28;20261;-71
2023/07/30 10:54:18;;;;;;;6.07;1.95;;;;;;;24.82;50.85;100982.50;4977542;28;20485;-70
2023/07/30 10:56:45;;;;;;;3.25;1.35;;;;;;;27.08;46.34;100974.09;4980665;28;20033;-70
2023/07/30 10:59:11;;;;;;;4.97;1.85;;;;;;;27.84;43.85;100965.94;4977307;28;20074;-70
2023/07/30 11:01:42;;;;;;;5.18;1.20;;;;;;;28.61;41.39;100985.53;4978110;28;20026;-70
2023/07/30 11:04:13;;;;;;;3.80;1.30;;;;;;;29.49;40.40;100972.50;4980677;28;20038;-71
2023/07/30 11:06:39;;;;;;;4.63;1.63;;;;;;;29.57;37.19;100966.91;4976270;28;20048;-69
2023/07/30 11:09:05;;;;;;;5.30;2.15;;;;;;;29.39;38.00;100977.50;4982276;28;20030;-70